sensor_id;sensor_type;location;lat;lon;timestamp;pressure;altitude;pressure_sealevel;temperature;humidity
54900;BME280;40801;41.924;25.562;2022-09-14T00:00:25;99357.66;;;16.97;47.62
54900;BME280;40801;41.924;25.562;2022-09-14T00:02:50;99361.56;;;16.84;49.44
54900;BME280;40801;41.924;25.562;2022-09-14T00:05:16;99364.25;;;16.96;46.30
54900;BME280;40801;41.924;25.562;2022-09-14T00:07:41;99368.25;;;16.86;49.53
54900;BME280;40801;41.924;25.562;2022-09-14T00:10:07;99358.50;;;16.85;48.33
54900;BME280;40801;41.924;25.562;2022-09-14T00:12:32;99372.59;;;16.75;49.47
54900;BME280;40801;41.924;25.562;2022-09-14T00:14:57;99368.06;;;16.79;49.35
54900;BME280;40801;41.924;25.562;2022-09-14T00:17:23;99368.75;;;16.64;50.12
54900;BME280;40801;41.924;25.562;2022-09-14T00:19:48;99369.69;;;16.68;49.43
54900;BME280;40801;41.924;25.562;2022-09-14T00:22:13;99366.38;;;16.62;49.96
54900;BME280;40801;41.924;25.562;2022-09-14T00:24:38;99367.31;;;16.54;50.09
54900;BME280;40801;41.924;25.562;2022-09-14T00:27:04;99360.06;;;16.46;50.40
54900;BME280;40801;41.924;25.562;2022-09-14T00:29:29;99362.34;;;16.44;50.56
54900;BME280;40801;41.924;25.562;2022-09-14T00:31:54;99371.75;;;16.47;49.85
54900;BME280;40801;41.924;25.562;2022-09-14T00:34:20;99366.09;;;16.39;50.39
54900;BME280;40801;41.924;25.562;2022-09-14T00:36:46;99365.44;;;16.30;50.70
54900;BME280;40801;41.924;25.562;2022-09-14T00:39:12;99365.56;;;16.22;50.76
54900;BME280;40801;41.924;25.562;2022-09-14T00:41:39;99371.56;;;16.15;51.27
54900;BME280;40801;41.924;25.562;2022-09-14T00:46:38;99379.63;;;16.11;49.37
54900;BME280;40801;41.924;25.562;2022-09-14T00:49:09;99375.88;;;16.04;51.00
54900;BME280;40801;41.924;25.562;2022-09-14T00:51:36;99375.53;;;16.05;50.52
54900;BME280;40801;41.924;25.562;2022-09-14T00:54:04;99374.31;;;16.03;50.10
54900;BME280;40801;41.924;25.562;2022-09-14T00:56:31;99379.41;;;16.04;50.80
54900;BME280;40801;41.924;25.562;2022-09-14T00:58:56;99376.56;;;16.01;51.02
54900;BME280;40801;41.924;25.562;2022-09-14T01:01:23;99381.91;;;15.97;50.70
54900;BME280;40801;41.924;25.562;2022-09-14T01:03:49;99380.78;;;15.98;50.66
54900;BME280;40801;41.924;25.562;2022-09-14T01:08:43;99379.41;;;15.92;50.96
54900;BME280;40801;41.924;25.562;2022-09-14T01:11:15;99379.16;;;15.85;51.15
54900;BME280;40801;41.924;25.562;2022-09-14T01:13:54;99372.47;;;15.83;51.14
54900;BME280;40801;41.924;25.562;2022-09-14T01:16:23;99382.56;;;15.82;50.90
54900;BME280;40801;41.924;25.562;2022-09-14T01:18:55;99384.03;;;15.79;50.93
54900;BME280;40801;41.924;25.562;2022-09-14T01:21:27;99374.41;;;15.82;50.09
54900;BME280;40801;41.924;25.562;2022-09-14T01:36:42;99381.03;;;15.48;51.70
54900;BME280;40801;41.924;25.562;2022-09-14T01:39:10;99386.91;;;15.50;51.36
54900;BME280;40801;41.924;25.562;2022-09-14T01:41:36;99380.56;;;15.46;51.39
54900;BME280;40801;41.924;25.562;2022-09-14T01:44:07;99377.06;;;15.58;50.31
54900;BME280;40801;41.924;25.562;2022-09-14T01:46:36;99375.63;;;15.60;50.61
54900;BME280;40801;41.924;25.562;2022-09-14T01:49:14;99371.97;;;15.44;51.43
54900;BME280;40801;41.924;25.562;2022-09-14T01:51:49;99382.00;;;15.31;51.79
54900;BME280;40801;41.924;25.562;2022-09-14T01:54:17;99381.88;;;15.28;51.78
54900;BME280;40801;41.924;25.562;2022-09-14T01:56:52;99391.63;;;15.29;51.21
54900;BME280;40801;41.924;25.562;2022-09-14T01:59:21;99387.97;;;15.12;51.94
54900;BME280;40801;41.924;25.562;2022-09-14T02:05:27;99380.88;;;14.99;52.32
54900;BME280;40801;41.924;25.562;2022-09-14T02:07:29;99388.34;;;15.02;52.32
54900;BME280;40801;41.924;25.562;2022-09-14T02:09:55;99387.56;;;15.02;52.52
54900;BME280;40801;41.924;25.562;2022-09-14T02:12:21;99387.56;;;15.02;52.77
54900;BME280;40801;41.924;25.562;2022-09-14T02:14:46;99389.47;;;15.01;52.75
54900;BME280;40801;41.924;25.562;2022-09-14T02:17:13;99389.03;;;14.99;52.80
54900;BME280;40801;41.924;25.562;2022-09-14T02:19:40;99394.00;;;14.97;52.49
54900;BME280;40801;41.924;25.562;2022-09-14T02:22:08;99390.50;;;14.97;52.48
54900;BME280;40801;41.924;25.562;2022-09-14T02:24:33;99386.97;;;14.96;53.00
54900;BME280;40801;41.924;25.562;2022-09-14T02:26:58;99380.03;;;14.86;53.27
54900;BME280;40801;41.924;25.562;2022-09-14T02:29:24;99389.56;;;14.93;53.15
54900;BME280;40801;41.924;25.562;2022-09-14T02:32:03;99392.75;;;14.95;53.28
54900;BME280;40801;41.924;25.562;2022-09-14T02:44:46;99394.09;;;14.68;53.69
54900;BME280;40801;41.924;25.562;2022-09-14T02:47:21;99400.38;;;14.60;54.37
54900;BME280;40801;41.924;25.562;2022-09-14T02:49:51;99396.66;;;14.64;53.09
54900;BME280;40801;41.924;25.562;2022-09-14T02:52:29;99399.59;;;14.59;54.47
54900;BME280;40801;41.924;25.562;2022-09-14T02:54:59;99401.03;;;14.56;54.55
54900;BME280;40801;41.924;25.562;2022-09-14T02:57:27;99405.88;;;14.51;54.51
54900;BME280;40801;41.924;25.562;2022-09-14T02:59:52;99392.09;;;14.56;53.66
54900;BME280;40801;41.924;25.562;2022-09-14T03:02:18;99400.91;;;14.53;53.37
54900;BME280;40801;41.924;25.562;2022-09-14T03:04:43;99400.38;;;14.60;54.23
54900;BME280;40801;41.924;25.562;2022-09-14T03:07:08;99405.22;;;14.54;54.29
54900;BME280;40801;41.924;25.562;2022-09-14T03:09:34;99407.66;;;14.38;54.52
54900;BME280;40801;41.924;25.562;2022-09-14T03:11:59;99410.38;;;14.47;53.95
54900;BME280;40801;41.924;25.562;2022-09-14T03:14:24;99417.88;;;14.41;54.96
54900;BME280;40801;41.924;25.562;2022-09-14T03:16:50;99412.75;;;14.40;54.94
54900;BME280;40801;41.924;25.562;2022-09-14T03:19:15;99416.34;;;14.32;55.01
54900;BME280;40801;41.924;25.562;2022-09-14T03:21:41;99415.34;;;14.36;55.08
54900;BME280;40801;41.924;25.562;2022-09-14T03:24:06;99411.38;;;14.34;55.29
54900;BME280;40801;41.924;25.562;2022-09-14T03:26:32;99409.66;;;14.29;55.06
54900;BME280;40801;41.924;25.562;2022-09-14T03:29:00;99414.81;;;14.22;55.33
54900;BME280;40801;41.924;25.562;2022-09-14T03:31:26;99414.47;;;14.23;55.14
54900;BME280;40801;41.924;25.562;2022-09-14T03:33:52;99419.13;;;14.14;55.51
54900;BME280;40801;41.924;25.562;2022-09-14T03:36:19;99420.91;;;14.10;55.69
54900;BME280;40801;41.924;25.562;2022-09-14T03:38:45;99419.97;;;14.06;54.77
54900;BME280;40801;41.924;25.562;2022-09-14T03:41:11;99419.97;;;14.06;55.10
54900;BME280;40801;41.924;25.562;2022-09-14T03:43:37;99417.91;;;14.03;55.22
54900;BME280;40801;41.924;25.562;2022-09-14T03:46:06;99423.53;;;13.98;54.69
54900;BME280;40801;41.924;25.562;2022-09-14T03:48:31;99418.84;;;14.07;55.58
54900;BME280;40801;41.924;25.562;2022-09-14T03:50:59;99417.59;;;14.05;56.30
54900;BME280;40801;41.924;25.562;2022-09-14T03:53:24;99421.75;;;14.02;55.59
54900;BME280;40801;41.924;25.562;2022-09-14T03:55:49;99419.84;;;14.03;56.23
54900;BME280;40801;41.924;25.562;2022-09-14T03:58:14;99414.59;;;13.98;55.59
54900;BME280;40801;41.924;25.562;2022-09-14T04:00:40;99416.06;;;13.95;56.25
54900;BME280;40801;41.924;25.562;2022-09-14T04:03:05;99414.78;;;13.92;55.15
54900;BME280;40801;41.924;25.562;2022-09-14T04:05:30;99414.81;;;13.84;56.30
54900;BME280;40801;41.924;25.562;2022-09-14T04:07:56;99418.06;;;13.69;57.07
54900;BME280;40801;41.924;25.562;2022-09-14T04:10:21;99418.06;;;13.69;56.67
54900;BME280;40801;41.924;25.562;2022-09-14T04:12:46;99425.03;;;13.78;56.12
54900;BME280;40801;41.924;25.562;2022-09-14T04:15:11;99416.75;;;13.75;56.84
54900;BME280;40801;41.924;25.562;2022-09-14T04:17:37;99409.09;;;13.77;56.74
54900;BME280;40801;41.924;25.562;2022-09-14T04:20:02;99416.25;;;13.81;56.20
54900;BME280;40801;41.924;25.562;2022-09-14T04:22:27;99419.63;;;13.78;56.68
54900;BME280;40801;41.924;25.562;2022-09-14T04:24:53;99406.69;;;13.84;56.44
54900;BME280;40801;41.924;25.562;2022-09-14T04:27:18;99416.19;;;13.99;55.71
54900;BME280;40801;41.924;25.562;2022-09-14T04:29:43;99413.66;;;13.93;56.41
54900;BME280;40801;41.924;25.562;2022-09-14T04:32:09;99417.84;;;13.82;57.24
54900;BME280;40801;41.924;25.562;2022-09-14T04:34:34;99424.84;;;13.83;57.38
54900;BME280;40801;41.924;25.562;2022-09-14T04:37:00;99428.69;;;13.91;57.61
54900;BME280;40801;41.924;25.562;2022-09-14T04:39:25;99434.38;;;13.98;56.83
54900;BME280;40801;41.924;25.562;2022-09-14T04:41:50;99440.38;;;14.12;56.43
54900;BME280;40801;41.924;25.562;2022-09-14T04:44:16;99429.50;;;14.21;57.11
54900;BME280;40801;41.924;25.562;2022-09-14T04:46:41;99430.50;;;14.37;54.77
54900;BME280;40801;41.924;25.562;2022-09-14T04:49:07;99431.56;;;14.53;53.65
54900;BME280;40801;41.924;25.562;2022-09-14T04:51:33;99429.56;;;14.63;56.12
54900;BME280;40801;41.924;25.562;2022-09-14T04:53:59;99437.19;;;14.69;56.15
54900;BME280;40801;41.924;25.562;2022-09-14T04:56:25;99437.19;;;14.69;57.67
54900;BME280;40801;41.924;25.562;2022-09-14T04:58:53;99428.19;;;14.98;56.87
54900;BME280;40801;41.924;25.562;2022-09-14T05:01:20;99422.63;;;15.28;56.07
54900;BME280;40801;41.924;25.562;2022-09-14T05:03:45;99424.59;;;15.39;55.88
54900;BME280;40801;41.924;25.562;2022-09-14T05:06:12;99425.97;;;15.45;55.05
54900;BME280;40801;41.924;25.562;2022-09-14T05:08:37;99429.94;;;15.48;55.08
54900;BME280;40801;41.924;25.562;2022-09-14T05:11:03;99427.47;;;15.55;55.04
54900;BME280;40801;41.924;25.562;2022-09-14T05:13:29;99426.75;;;15.67;54.99
54900;BME280;40801;41.924;25.562;2022-09-14T05:15:54;99421.09;;;15.72;55.07
54900;BME280;40801;41.924;25.562;2022-09-14T05:18:19;99421.09;;;15.84;55.06
54900;BME280;40801;41.924;25.562;2022-09-14T05:20:45;99424.41;;;16.02;54.29
54900;BME280;40801;41.924;25.562;2022-09-14T05:23:10;99424.06;;;16.28;53.26
54900;BME280;40801;41.924;25.562;2022-09-14T05:25:35;99420.28;;;16.57;53.06
54900;BME280;40801;41.924;25.562;2022-09-14T05:28:01;99421.50;;;16.84;52.16
54900;BME280;40801;41.924;25.562;2022-09-14T05:30:26;99428.81;;;17.08;51.74
54900;BME280;40801;41.924;25.562;2022-09-14T05:32:51;99431.16;;;17.37;51.22
54900;BME280;40801;41.924;25.562;2022-09-14T05:35:17;99434.31;;;17.67;50.29
54900;BME280;40801;41.924;25.562;2022-09-14T05:37:42;99426.50;;;17.97;49.16
54900;BME280;40801;41.924;25.562;2022-09-14T05:40:08;99427.97;;;18.26;49.03
54900;BME280;40801;41.924;25.562;2022-09-14T05:42:33;99433.13;;;18.63;48.29
54900;BME280;40801;41.924;25.562;2022-09-14T05:44:59;99425.06;;;18.70;47.71
54900;BME280;40801;41.924;25.562;2022-09-14T05:47:25;99433.94;;;19.02;46.56
54900;BME280;40801;41.924;25.562;2022-09-14T05:49:52;99434.78;;;19.06;45.88
54900;BME280;40801;41.924;25.562;2022-09-14T05:52:17;99434.28;;;19.00;45.66
54900;BME280;40801;41.924;25.562;2022-09-14T05:54:43;99438.47;;;19.33;45.38
54900;BME280;40801;41.924;25.562;2022-09-14T05:57:09;99445.50;;;19.72;44.69
54900;BME280;40801;41.924;25.562;2022-09-14T05:59:34;99436.75;;;20.13;43.65
54900;BME280;40801;41.924;25.562;2022-09-14T06:01:59;99434.38;;;20.34;42.97
54900;BME280;40801;41.924;25.562;2022-09-14T06:04:24;99438.84;;;20.72;42.23
54900;BME280;40801;41.924;25.562;2022-09-14T06:06:50;99442.91;;;20.82;41.68
54900;BME280;40801;41.924;25.562;2022-09-14T06:09:15;99441.03;;;20.89;41.72
54900;BME280;40801;41.924;25.562;2022-09-14T06:11:40;99438.44;;;21.00;41.28
54900;BME280;40801;41.924;25.562;2022-09-14T06:14:06;99447.19;;;21.43;40.72
54900;BME280;40801;41.924;25.562;2022-09-14T06:16:31;99441.53;;;21.65;39.87
54900;BME280;40801;41.924;25.562;2022-09-14T06:18:57;99440.28;;;22.00;40.00
54900;BME280;40801;41.924;25.562;2022-09-14T06:21:25;99448.41;;;22.30;39.74
54900;BME280;40801;41.924;25.562;2022-09-14T06:23:51;99451.69;;;22.53;37.97
54900;BME280;40801;41.924;25.562;2022-09-14T06:26:17;99446.88;;;22.98;39.66
54900;BME280;40801;41.924;25.562;2022-09-14T06:28:42;99452.56;;;23.44;37.65
54900;BME280;40801;41.924;25.562;2022-09-14T06:31:10;99461.28;;;23.71;37.36
54900;BME280;40801;41.924;25.562;2022-09-14T06:33:35;99464.84;;;23.72;35.97
54900;BME280;40801;41.924;25.562;2022-09-14T06:36:08;99465.63;;;24.19;35.53
54900;BME280;40801;41.924;25.562;2022-09-14T06:38:36;99469.94;;;24.69;37.58
54900;BME280;40801;41.924;25.562;2022-09-14T06:41:02;99468.72;;;24.88;33.82
54900;BME280;40801;41.924;25.562;2022-09-14T06:43:30;99460.38;;;25.13;33.53
54900;BME280;40801;41.924;25.562;2022-09-14T06:46:00;99463.88;;;25.28;33.58
54900;BME280;40801;41.924;25.562;2022-09-14T06:48:26;99469.50;;;24.89;33.55
54900;BME280;40801;41.924;25.562;2022-09-14T06:50:51;99464.75;;;24.96;33.56
54900;BME280;40801;41.924;25.562;2022-09-14T06:53:17;99461.84;;;25.36;33.02
54900;BME280;40801;41.924;25.562;2022-09-14T06:55:42;99465.53;;;25.84;32.63
54900;BME280;40801;41.924;25.562;2022-09-14T06:58:09;99465.53;;;25.84;32.62
54900;BME280;40801;41.924;25.562;2022-09-14T07:00:35;99463.25;;;26.24;32.34
54900;BME280;40801;41.924;25.562;2022-09-14T07:03:00;99458.69;;;26.89;31.31
54900;BME280;40801;41.924;25.562;2022-09-14T07:05:25;99457.81;;;27.30;32.08
54900;BME280;40801;41.924;25.562;2022-09-14T07:07:51;99455.31;;;27.39;29.38
54900;BME280;40801;41.924;25.562;2022-09-14T07:10:19;99462.16;;;27.31;28.93
54900;BME280;40801;41.924;25.562;2022-09-14T07:12:44;99458.91;;;27.66;28.14
54900;BME280;40801;41.924;25.562;2022-09-14T07:15:09;99454.94;;;27.67;27.61
54900;BME280;40801;41.924;25.562;2022-09-14T07:17:35;99458.75;;;27.50;28.50
54900;BME280;40801;41.924;25.562;2022-09-14T07:20:03;99462.00;;;27.72;27.92
54900;BME280;40801;41.924;25.562;2022-09-14T07:22:33;99465.78;;;27.85;27.21
54900;BME280;40801;41.924;25.562;2022-09-14T07:24:58;99463.47;;;28.30;28.47
54900;BME280;40801;41.924;25.562;2022-09-14T07:27:23;99470.47;;;28.82;25.72
54900;BME280;40801;41.924;25.562;2022-09-14T07:29:49;99472.06;;;29.22;25.93
54900;BME280;40801;41.924;25.562;2022-09-14T07:32:14;99465.16;;;29.67;26.91
54900;BME280;40801;41.924;25.562;2022-09-14T07:34:40;99461.59;;;30.18;25.22
54900;BME280;40801;41.924;25.562;2022-09-14T07:37:05;99459.28;;;29.97;25.14
54900;BME280;40801;41.924;25.562;2022-09-14T07:39:30;99459.53;;;29.70;25.74
54900;BME280;40801;41.924;25.562;2022-09-14T07:41:55;99460.03;;;29.65;24.83
54900;BME280;40801;41.924;25.562;2022-09-14T07:44:21;99465.69;;;29.78;24.58
54900;BME280;40801;41.924;25.562;2022-09-14T07:46:46;99457.91;;;29.89;24.96
54900;BME280;40801;41.924;25.562;2022-09-14T07:49:12;99453.91;;;30.39;24.03
54900;BME280;40801;41.924;25.562;2022-09-14T07:51:38;99454.75;;;30.52;23.32
54900;BME280;40801;41.924;25.562;2022-09-14T07:54:05;99459.19;;;30.95;23.30
54900;BME280;40801;41.924;25.562;2022-09-14T07:56:30;99455.75;;;31.03;23.09
54900;BME280;40801;41.924;25.562;2022-09-14T07:58:56;99451.78;;;31.17;23.10
54900;BME280;40801;41.924;25.562;2022-09-14T08:01:22;99453.38;;;31.43;23.78
54900;BME280;40801;41.924;25.562;2022-09-14T08:03:48;99458.00;;;31.76;22.84
54900;BME280;40801;41.924;25.562;2022-09-14T08:06:14;99455.75;;;31.70;22.80
54900;BME280;40801;41.924;25.562;2022-09-14T08:08:41;99443.56;;;31.26;22.69
54900;BME280;40801;41.924;25.562;2022-09-14T08:11:11;99447.72;;;31.98;22.54
54900;BME280;40801;41.924;25.562;2022-09-14T08:13:37;99445.00;;;32.20;21.94
54900;BME280;40801;41.924;25.562;2022-09-14T08:16:03;99450.56;;;32.67;22.35
54900;BME280;40801;41.924;25.562;2022-09-14T08:18:30;99447.41;;;32.78;21.71
54900;BME280;40801;41.924;25.562;2022-09-14T08:20:56;99449.84;;;33.19;20.82
54900;BME280;40801;41.924;25.562;2022-09-14T08:23:22;99437.88;;;32.88;20.72
54900;BME280;40801;41.924;25.562;2022-09-14T08:25:49;99442.81;;;33.06;21.79
54900;BME280;40801;41.924;25.562;2022-09-14T08:28:14;99433.63;;;33.58;21.55
54900;BME280;40801;41.924;25.562;2022-09-14T08:30:39;99433.63;;;33.58;20.33
54900;BME280;40801;41.924;25.562;2022-09-14T08:33:05;99431.81;;;33.82;21.13
54900;BME280;40801;41.924;25.562;2022-09-14T08:35:30;99433.78;;;34.04;20.60
54900;BME280;40801;41.924;25.562;2022-09-14T08:37:56;99430.41;;;34.27;20.92
54900;BME280;40801;41.924;25.562;2022-09-14T08:40:21;99425.72;;;34.15;20.13
54900;BME280;40801;41.924;25.562;2022-09-14T08:42:46;99421.38;;;34.69;19.18
54900;BME280;40801;41.924;25.562;2022-09-14T08:45:12;99410.00;;;34.08;20.10
54900;BME280;40801;41.924;25.562;2022-09-14T08:47:40;99411.31;;;34.44;19.97
54900;BME280;40801;41.924;25.562;2022-09-14T08:50:11;99400.47;;;35.16;20.16
54900;BME280;40801;41.924;25.562;2022-09-14T08:52:38;99398.75;;;35.18;18.89
54900;BME280;40801;41.924;25.562;2022-09-14T08:57:43;99404.06;;;36.15;18.01
54900;BME280;40801;41.924;25.562;2022-09-14T09:00:13;99408.63;;;34.95;19.63
54900;BME280;40801;41.924;25.562;2022-09-14T09:07:53;99385.72;;;35.48;18.28
54900;BME280;40801;41.924;25.562;2022-09-14T09:10:19;99393.13;;;36.17;18.40
54900;BME280;40801;41.924;25.562;2022-09-14T09:12:46;99394.25;;;36.35;18.90
54900;BME280;40801;41.924;25.562;2022-09-14T09:15:29;99387.63;;;36.23;18.60
54900;BME280;40801;41.924;25.562;2022-09-14T09:20:51;99389.13;;;36.09;18.17
54900;BME280;40801;41.924;25.562;2022-09-14T09:23:22;99385.03;;;36.73;17.77
54900;BME280;40801;41.924;25.562;2022-09-14T09:28:22;99379.97;;;36.47;18.43
54900;BME280;40801;41.924;25.562;2022-09-14T09:30:48;99382.41;;;36.54;18.63
54900;BME280;40801;41.924;25.562;2022-09-14T09:33:18;99372.94;;;36.04;18.10
54900;BME280;40801;41.924;25.562;2022-09-14T09:35:45;99377.06;;;36.56;18.00
54900;BME280;40801;41.924;25.562;2022-09-14T09:38:14;99370.00;;;36.76;17.85
54900;BME280;40801;41.924;25.562;2022-09-14T09:40:40;99362.94;;;36.27;17.82
54900;BME280;40801;41.924;25.562;2022-09-14T09:43:12;99367.78;;;37.39;17.54
54900;BME280;40801;41.924;25.562;2022-09-14T09:48:10;99363.44;;;37.08;16.81
54900;BME280;40801;41.924;25.562;2022-09-14T09:50:35;99360.91;;;37.10;17.73
54900;BME280;40801;41.924;25.562;2022-09-14T09:53:00;99350.88;;;37.24;17.08
54900;BME280;40801;41.924;25.562;2022-09-14T09:55:36;99343.59;;;37.47;16.77
54900;BME280;40801;41.924;25.562;2022-09-14T10:00:54;99339.97;;;36.97;17.47
54900;BME280;40801;41.924;25.562;2022-09-14T10:03:25;99343.22;;;37.74;16.51
54900;BME280;40801;41.924;25.562;2022-09-14T10:05:57;99338.50;;;38.06;16.42
54900;BME280;40801;41.924;25.562;2022-09-14T10:08:23;99334.19;;;38.31;16.69
54900;BME280;40801;41.924;25.562;2022-09-14T10:10:50;99331.81;;;38.04;16.07
54900;BME280;40801;41.924;25.562;2022-09-14T10:13:26;99326.13;;;37.78;16.86
54900;BME280;40801;41.924;25.562;2022-09-14T10:15:52;99325.56;;;37.74;16.30
54900;BME280;40801;41.924;25.562;2022-09-14T10:18:18;99318.66;;;37.95;17.13
54900;BME280;40801;41.924;25.562;2022-09-14T10:25:44;99310.09;;;38.30;16.20
54900;BME280;40801;41.924;25.562;2022-09-14T10:28:43;99309.88;;;39.60;15.88
54900;BME280;40801;41.924;25.562;2022-09-14T10:31:03;99313.75;;;39.25;15.10
54900;BME280;40801;41.924;25.562;2022-09-14T10:33:31;99312.13;;;39.50;15.05
54900;BME280;40801;41.924;25.562;2022-09-14T10:38:41;99312.22;;;39.24;14.91
54900;BME280;40801;41.924;25.562;2022-09-14T10:41:13;99308.19;;;39.37;14.84
54900;BME280;40801;41.924;25.562;2022-09-14T10:46:12;99301.19;;;39.26;15.07
54900;BME280;40801;41.924;25.562;2022-09-14T10:53:56;99299.47;;;39.88;14.14
54900;BME280;40801;41.924;25.562;2022-09-14T10:57:10;99289.28;;;40.02;13.56
54900;BME280;40801;41.924;25.562;2022-09-14T11:25:12;99262.13;;;40.94;13.07
54900;BME280;40801;41.924;25.562;2022-09-14T11:27:35;99254.63;;;41.30;13.54
54900;BME280;40801;41.924;25.562;2022-09-14T11:30:10;99252.44;;;39.74;13.73
54900;BME280;40801;41.924;25.562;2022-09-14T11:32:39;99246.44;;;40.26;13.99
54900;BME280;40801;41.924;25.562;2022-09-14T11:37:42;99249.50;;;41.12;13.22
54900;BME280;40801;41.924;25.562;2022-09-14T11:40:18;99251.84;;;41.08;13.49
54900;BME280;40801;41.924;25.562;2022-09-14T11:42:48;99242.56;;;41.82;12.55
54900;BME280;40801;41.924;25.562;2022-09-14T11:45:20;99247.81;;;42.14;12.72
54900;BME280;40801;41.924;25.562;2022-09-14T11:47:52;99252.16;;;42.20;12.73
54900;BME280;40801;41.924;25.562;2022-09-14T11:50:24;99246.56;;;42.09;12.64
54900;BME280;40801;41.924;25.562;2022-09-14T11:53:01;99236.34;;;41.95;13.25
54900;BME280;40801;41.924;25.562;2022-09-14T11:55:27;99249.94;;;42.02;12.90
54900;BME280;40801;41.924;25.562;2022-09-14T11:57:53;99234.69;;;42.11;12.27
54900;BME280;40801;41.924;25.562;2022-09-14T12:02:44;99233.81;;;41.22;13.84
54900;BME280;40801;41.924;25.562;2022-09-14T12:12:40;99202.22;;;42.12;12.21
54900;BME280;40801;41.924;25.562;2022-09-14T12:17:37;99192.63;;;42.20;12.59
54900;BME280;40801;41.924;25.562;2022-09-14T12:22:46;99184.75;;;42.67;11.92
54900;BME280;40801;41.924;25.562;2022-09-14T12:27:42;99176.28;;;41.55;12.16
54900;BME280;40801;41.924;25.562;2022-09-14T12:32:52;99170.72;;;43.24;11.69
54900;BME280;40801;41.924;25.562;2022-09-14T12:40:45;99164.16;;;42.37;11.79
54900;BME280;40801;41.924;25.562;2022-09-14T12:46:10;99154.72;;;41.88;12.19
54900;BME280;40801;41.924;25.562;2022-09-14T12:49:02;99155.91;;;41.68;12.30
54900;BME280;40801;41.924;25.562;2022-09-14T13:04:04;99158.75;;;43.12;12.14
54900;BME280;40801;41.924;25.562;2022-09-14T13:06:40;99154.81;;;43.58;11.04
54900;BME280;40801;41.924;25.562;2022-09-14T13:09:11;99146.94;;;43.70;10.50
54900;BME280;40801;41.924;25.562;2022-09-14T13:11:39;99149.91;;;42.97;11.56
54900;BME280;40801;41.924;25.562;2022-09-14T13:14:05;99155.50;;;42.24;11.74
54900;BME280;40801;41.924;25.562;2022-09-14T13:16:34;99149.66;;;42.95;11.38
54900;BME280;40801;41.924;25.562;2022-09-14T13:19:02;99154.09;;;42.66;11.49
54900;BME280;40801;41.924;25.562;2022-09-14T13:21:29;99152.88;;;42.31;11.79
54900;BME280;40801;41.924;25.562;2022-09-14T13:23:54;99154.16;;;41.54;12.42
54900;BME280;40801;41.924;25.562;2022-09-14T13:26:20;99158.84;;;41.45;11.93
54900;BME280;40801;41.924;25.562;2022-09-14T13:28:47;99156.69;;;41.57;12.20
54900;BME280;40801;41.924;25.562;2022-09-14T13:31:16;99155.28;;;42.52;11.64
54900;BME280;40801;41.924;25.562;2022-09-14T13:33:48;99161.91;;;42.84;11.96
54900;BME280;40801;41.924;25.562;2022-09-14T13:36:19;99164.09;;;42.43;12.50
54900;BME280;40801;41.924;25.562;2022-09-14T13:38:45;99165.28;;;41.93;12.23
54900;BME280;40801;41.924;25.562;2022-09-14T13:41:13;99163.88;;;42.05;11.97
54900;BME280;40801;41.924;25.562;2022-09-14T13:43:39;99170.84;;;41.68;12.40
54900;BME280;40801;41.924;25.562;2022-09-14T13:46:06;99162.31;;;42.10;11.98
54900;BME280;40801;41.924;25.562;2022-09-14T13:48:32;99166.09;;;41.82;12.51
54900;BME280;40801;41.924;25.562;2022-09-14T13:50:57;99160.09;;;41.50;12.27
54900;BME280;40801;41.924;25.562;2022-09-14T13:58:41;99168.16;;;41.29;12.42
54900;BME280;40801;41.924;25.562;2022-09-14T14:01:06;99169.94;;;41.32;12.91
54900;BME280;40801;41.924;25.562;2022-09-14T14:06:02;99171.59;;;41.63;12.65
54900;BME280;40801;41.924;25.562;2022-09-14T14:10:55;99160.03;;;40.98;13.39
54900;BME280;40801;41.924;25.562;2022-09-14T14:13:25;99155.81;;;41.21;12.82
54900;BME280;40801;41.924;25.562;2022-09-14T14:15:50;99157.59;;;41.82;12.33
54900;BME280;40801;41.924;25.562;2022-09-14T14:18:30;99163.69;;;41.51;12.78
54900;BME280;40801;41.924;25.562;2022-09-14T14:21:43;99167.31;;;40.32;13.43
54900;BME280;40801;41.924;25.562;2022-09-14T14:23:50;99161.06;;;39.72;13.95
54900;BME280;40801;41.924;25.562;2022-09-14T14:26:17;99166.47;;;39.75;14.60
54900;BME280;40801;41.924;25.562;2022-09-14T14:28:44;99177.19;;;39.60;14.42
54900;BME280;40801;41.924;25.562;2022-09-14T14:31:14;99176.66;;;39.50;14.41
54900;BME280;40801;41.924;25.562;2022-09-14T14:33:43;99170.56;;;39.74;14.09
54900;BME280;40801;41.924;25.562;2022-09-14T14:36:09;99172.59;;;39.62;14.45
54900;BME280;40801;41.924;25.562;2022-09-14T14:38:34;99177.69;;;39.53;14.43
54900;BME280;40801;41.924;25.562;2022-09-14T14:41:00;99169.91;;;38.51;14.98
54900;BME280;40801;41.924;25.562;2022-09-14T14:43:25;99170.66;;;38.83;14.76
54900;BME280;40801;41.924;25.562;2022-09-14T14:45:52;99171.09;;;39.13;15.23
54900;BME280;40801;41.924;25.562;2022-09-14T14:48:19;99168.03;;;39.11;14.55
54900;BME280;40801;41.924;25.562;2022-09-14T14:50:44;99168.47;;;39.04;14.58
54900;BME280;40801;41.924;25.562;2022-09-14T14:53:10;99174.03;;;38.93;14.22
54900;BME280;40801;41.924;25.562;2022-09-14T14:55:35;99174.66;;;38.34;15.46
54900;BME280;40801;41.924;25.562;2022-09-14T14:58:02;99167.16;;;37.99;15.91
54900;BME280;40801;41.924;25.562;2022-09-14T15:00:32;99174.53;;;38.54;15.38
54900;BME280;40801;41.924;25.562;2022-09-14T15:02:58;99158.78;;;38.36;15.71
54900;BME280;40801;41.924;25.562;2022-09-14T15:05:23;99161.28;;;38.29;15.59
54900;BME280;40801;41.924;25.562;2022-09-14T15:07:49;99162.13;;;38.40;15.60
54900;BME280;40801;41.924;25.562;2022-09-14T15:10:16;99159.47;;;38.00;15.34
54900;BME280;40801;41.924;25.562;2022-09-14T15:12:42;99167.44;;;38.01;15.63
54900;BME280;40801;41.924;25.562;2022-09-14T15:15:14;99157.72;;;38.02;15.60